Time;durP1;ratioP1;P1;durP2;ratioP2;P2;SDS_P1;SDS_P2;PMS_P1;PMS_P2;Temp;Humidity;BMP_temperature;BMP_pressure;BME280_temperature;BME280_humidity;BME280_pressure;Samples;Min_cycle;Max_cycle;Signal;HPM_P1;HPM_P2
2023/05/15 00:01:19;;;;;;;8.30;7.17;;;;;;;10.45;75.27;100582.22;5012492;28;20235;-70
2023/05/15 00:03:45;;;;;;;8.73;7.03;;;;;;;10.40;74.77;100574.50;5013528;28;20219;-70
2023/05/15 00:06:11;;;;;;;9.00;7.27;;;;;;;10.36;75.30;100584.91;5011705;28;20684;-69
2023/05/15 00:08:39;;;;;;;9.97;7.93;;;;;;;10.33;75.67;100582.91;5011135;28;20367;-70
2023/05/15 00:11:06;;;;;;;8.83;7.77;;;;;;;10.29;76.18;100573.31;5004472;28;20210;-70
2023/05/15 00:13:32;;;;;;;8.53;7.20;;;;;;;10.25;75.72;100570.56;4994542;28;20220;-70
2023/05/15 00:15:58;;;;;;;8.77;7.03;;;;;;;10.21;75.73;100566.25;5019347;28;20201;-70
2023/05/15 00:18:25;;;;;;;9.47;6.93;;;;;;;10.15;75.90;100562.25;5015982;28;20197;-70
2023/05/15 00:20:52;;;;;;;8.93;7.43;;;;;;;10.10;76.12;100560.56;5011595;28;20201;-70
2023/05/15 00:23:18;;;;;;;8.73;7.10;;;;;;;10.06;76.52;100569.47;5022550;28;20211;-70
2023/05/15 00:25:46;;;;;;;8.70;7.07;;;;;;;10.01;76.12;100559.06;5022792;28;20232;-70
2023/05/15 00:28:12;;;;;;;9.10;7.60;;;;;;;9.96;76.22;100562.69;5005938;28;20190;-70
2023/05/15 00:30:38;;;;;;;8.27;7.33;;;;;;;9.93;76.40;100554.66;5015254;28;20204;-69
2023/05/15 00:33:06;;;;;;;8.50;7.47;;;;;;;9.89;76.59;100556.38;5014943;28;20583;-70
2023/05/15 00:35:33;;;;;;;10.70;7.20;;;;;;;9.86;76.47;100547.25;4996280;28;20259;-70
2023/05/15 00:38:01;;;;;;;8.57;7.10;;;;;;;9.83;76.91;100547.13;5008957;28;20219;-70
2023/05/15 00:40:28;;;;;;;8.93;7.77;;;;;;;9.79;77.02;100546.22;5008333;28;20200;-70
2023/05/15 00:42:57;;;;;;;10.80;7.30;;;;;;;9.75;77.09;100546.06;4998702;28;20238;-70
2023/05/15 00:45:24;;;;;;;9.90;6.97;;;;;;;9.70;77.09;100538.34;4994163;28;20211;-70
2023/05/15 00:47:51;;;;;;;9.33;7.57;;;;;;;9.67;77.75;100531.06;5003130;28;20192;-69
2023/05/15 00:50:19;;;;;;;9.33;7.70;;;;;;;9.64;77.33;100530.94;5008517;28;20257;-70
2023/05/15 00:52:45;;;;;;;9.77;7.40;;;;;;;9.60;77.64;100530.03;4992876;28;20223;-70
2023/05/15 00:55:12;;;;;;;9.37;7.97;;;;;;;9.59;77.86;100528.50;5000199;28;20193;-70
2023/05/15 00:57:40;;;;;;;7.53;6.73;;;;;;;9.56;77.91;100523.84;5016395;28;20188;-71
2023/05/15 01:00:10;;;;;;;9.77;7.90;;;;;;;9.55;77.91;100519.66;5017543;28;20625;-70
2023/05/15 01:02:37;;;;;;;8.33;7.53;;;;;;;9.54;78.03;100518.13;5010677;28;20320;-70
2023/05/15 01:05:03;;;;;;;9.33;7.50;;;;;;;9.53;78.49;100519.97;4997865;28;20703;-70
2023/05/15 01:07:33;;;;;;;9.90;7.77;;;;;;;9.54;78.32;100518.91;4990045;28;20205;-70
2023/05/15 01:10:01;;;;;;;8.30;7.50;;;;;;;9.53;78.08;100513.97;4978725;28;20664;-70
2023/05/15 01:12:31;;;;;;;8.13;7.33;;;;;;;9.52;78.48;100515.81;5023439;28;20229;-70
2023/05/15 01:14:57;;;;;;;8.80;7.70;;;;;;;9.51;78.29;100514.28;4991509;28;20214;-70
2023/05/15 01:17:25;;;;;;;8.83;6.87;;;;;;;9.50;78.67;100515.38;5024487;28;20204;-70
2023/05/15 01:19:52;;;;;;;9.53;7.77;;;;;;;9.50;78.64;100510.09;5012352;28;20201;-71
2023/05/15 01:22:48;;;;;;;9.10;8.20;;;;;;;9.50;78.91;100520.63;5012793;28;20225;-70
2023/05/15 01:25:52;;;;;;;9.73;7.73;;;;;;;9.50;78.55;100512.72;5009874;28;20201;-70
2023/05/15 01:28:25;;;;;;;10.63;8.40;;;;;;;9.48;78.85;100512.25;5015620;28;20611;-70
2023/05/15 01:30:55;;;;;;;9.53;7.80;;;;;;;9.48;78.72;100512.25;5008957;28;20655;-70
2023/05/15 01:33:24;;;;;;;10.07;7.60;;;;;;;9.48;78.95;100500.97;5013962;28;20216;-70
2023/05/15 01:35:57;;;;;;;8.93;8.03;;;;;;;9.49;78.83;100498.00;5025433;28;20560;-70
2023/05/15 01:38:31;;;;;;;9.30;7.83;;;;;;;9.50;78.98;100504.81;5009599;28;20580;-70
2023/05/15 01:41:05;;;;;;;9.00;8.10;;;;;;;9.54;79.57;100507.59;5013698;28;20213;-70
2023/05/15 01:43:35;;;;;;;12.23;8.97;;;;;;;9.55;79.28;100495.94;5009059;28;20197;-70
2023/05/15 01:46:02;;;;;;;11.80;9.20;;;;;;;9.59;79.33;100496.84;5023028;28;20199;-70
2023/05/15 01:48:33;;;;;;;10.87;8.73;;;;;;;9.62;79.37;100496.97;5010437;28;20209;-70
2023/05/15 01:51:03;;;;;;;9.67;8.43;;;;;;;9.66;79.50;100489.19;5029965;28;20200;-70
2023/05/15 01:53:31;;;;;;;9.23;8.23;;;;;;;9.70;79.35;100490.91;4995561;28;20228;-70
2023/05/15 01:55:59;;;;;;;9.60;8.10;;;;;;;9.73;79.06;100490.22;4975963;28;20202;-70
2023/05/15 01:58:27;;;;;;;10.10;9.00;;;;;;;9.77;78.92;100487.72;4986486;28;20192;-70
2023/05/15 02:00:56;;;;;;;10.83;8.70;;;;;;;9.81;78.62;100486.00;4996980;28;20195;-70
2023/05/15 02:03:23;;;;;;;11.20;9.27;;;;;;;9.83;77.52;100483.81;4998755;28;20200;-69
2023/05/15 02:05:52;;;;;;;10.87;8.83;;;;;;;9.87;76.48;100497.88;4996656;28;20200;-70
2023/05/15 02:08:20;;;;;;;10.87;9.10;;;;;;;9.92;77.62;100509.03;5017390;28;20209;-69
2023/05/15 02:10:48;;;;;;;10.33;9.00;;;;;;;9.96;76.62;100496.75;5001083;28;20202;-70
2023/05/15 02:13:16;;;;;;;11.27;8.60;;;;;;;10.02;76.22;100498.09;5012545;28;20221;-70
2023/05/15 02:15:42;;;;;;;9.67;8.27;;;;;;;10.10;77.20;100493.88;5022232;28;20217;-70
2023/05/15 02:18:10;;;;;;;11.07;9.33;;;;;;;10.16;76.33;100487.28;4997163;28;20682;-70
2023/05/15 02:20:36;;;;;;;10.13;8.33;;;;;;;10.22;76.26;100494.69;5002626;28;20285;-70
2023/05/15 02:23:02;;;;;;;10.50;8.80;;;;;;;10.29;76.01;100487.00;4998757;28;20238;-70
2023/05/15 02:25:38;;;;;;;9.37;8.17;;;;;;;10.37;76.25;100480.09;5032521;28;20224;-70
2023/05/15 02:28:11;;;;;;;8.63;7.63;;;;;;;10.42;76.37;100480.69;5012867;28;20685;-71
2023/05/15 02:30:45;;;;;;;8.30;7.40;;;;;;;10.50;76.70;100485.09;5018471;28;20199;-70
2023/05/15 02:33:22;;;;;;;8.57;7.47;;;;;;;10.56;76.07;100483.78;5010348;28;20694;-70
2023/05/15 02:35:56;;;;;;;8.57;7.43;;;;;;;10.62;75.28;100482.47;5028838;28;20192;-70
2023/05/15 02:38:35;;;;;;;8.57;7.63;;;;;;;10.68;75.93;100475.88;5012253;28;20205;-71
2023/05/15 02:41:03;;;;;;;9.47;7.40;;;;;;;10.75;76.00;100477.97;4994228;28;20219;-70
2023/05/15 02:43:32;;;;;;;7.87;6.80;;;;;;;10.81;76.57;100471.41;5004728;28;20200;-71
2023/05/15 02:45:59;;;;;;;7.67;6.57;;;;;;;10.86;76.25;100477.22;5014572;28;20216;-70
2023/05/15 02:48:27;;;;;;;6.97;6.23;;;;;;;10.90;77.34;100464.91;5011965;28;20204;-70
2023/05/15 02:50:54;;;;;;;7.27;6.57;;;;;;;10.94;76.69;100465.78;5018408;28;20218;-71
2023/05/15 02:53:20;;;;;;;7.83;6.67;;;;;;;10.98;77.79;100458.72;5020102;28;20225;-71
2023/05/15 02:55:47;;;;;;;7.63;6.93;;;;;;;11.00;78.39;100445.97;4997444;28;20216;-70
2023/05/15 02:58:14;;;;;;;9.30;6.73;;;;;;;11.04;77.71;100440.78;4997125;28;20203;-69
2023/05/15 03:00:40;;;;;;;8.50;7.00;;;;;;;11.06;78.05;100441.22;5003359;28;20200;-71
2023/05/15 03:03:07;;;;;;;8.23;7.27;;;;;;;11.06;77.86;100431.44;4997383;28;20303;-71
2023/05/15 03:05:34;;;;;;;7.57;6.33;;;;;;;11.08;78.58;100423.19;4998535;28;20218;-70
2023/05/15 03:08:01;;;;;;;8.33;7.43;;;;;;;11.09;77.75;100422.84;4993370;28;20204;-70
2023/05/15 03:10:27;;;;;;;8.17;7.37;;;;;;;11.10;77.55;100423.59;5013546;28;20545;-70
2023/05/15 03:12:57;;;;;;;7.70;6.90;;;;;;;11.11;77.88;100414.56;4997840;28;20236;-70
2023/05/15 03:15:23;;;;;;;8.20;7.27;;;;;;;11.10;77.55;100413.03;4994385;28;20665;-71
2023/05/15 03:17:49;;;;;;;9.93;7.50;;;;;;;11.09;78.06;100409.63;5004462;28;20637;-70
2023/05/15 03:20:16;;;;;;;8.73;6.50;;;;;;;11.10;77.59;100418.31;4994188;28;20200;-70
2023/05/15 03:22:44;;;;;;;7.67;6.77;;;;;;;11.11;77.69;100422.50;5000014;28;20215;-70
2023/05/15 03:25:11;;;;;;;8.60;7.60;;;;;;;11.11;77.69;100419.84;5013103;28;20204;-70
2023/05/15 03:27:37;;;;;;;8.57;7.33;;;;;;;11.12;77.70;100432.00;5020602;28;20193;-70
2023/05/15 03:30:05;;;;;;;8.50;7.60;;;;;;;11.12;77.18;100419.53;5013314;28;20200;-71
2023/05/15 03:32:31;;;;;;;8.33;7.43;;;;;;;11.11;75.79;100427.78;4995961;28;20736;-70
2023/05/15 03:34:57;;;;;;;10.27;7.33;;;;;;;11.12;77.62;100421.41;5015088;28;20303;-70
2023/05/15 03:37:24;;;;;;;10.73;7.70;;;;;;;11.13;76.94;100417.66;5010798;28;20231;-70
2023/05/15 03:39:51;;;;;;;8.03;7.00;;;;;;;11.14;76.67;100421.84;5024616;28;20216;-70
2023/05/15 03:42:22;;;;;;;8.10;7.30;;;;;;;11.14;77.48;100429.78;4998410;28;20235;-71
2023/05/15 03:44:48;;;;;;;9.30;7.33;;;;;;;11.14;77.62;100424.50;5010270;28;20747;-70
2023/05/15 03:47:14;;;;;;;9.33;8.13;;;;;;;11.13;77.49;100415.78;5018617;28;20205;-70
2023/05/15 03:49:42;;;;;;;8.90;7.53;;;;;;;11.16;77.10;100423.06;4995288;28;20352;-70
2023/05/15 03:52:09;;;;;;;8.87;7.57;;;;;;;11.16;77.41;100419.63;5004094;28;20224;-70
2023/05/15 03:54:35;;;;;;;9.10;7.40;;;;;;;11.16;78.46;100420.41;4994655;28;20230;-70
2023/05/15 03:57:04;;;;;;;9.30;7.63;;;;;;;11.17;78.25;100411.38;4999449;28;20214;-70
2023/05/15 03:59:30;;;;;;;8.63;7.73;;;;;;;11.17;78.38;100406.09;5014914;28;20203;-70
2023/05/15 04:01:57;;;;;;;8.67;7.27;;;;;;;11.19;78.73;100411.81;5018062;28;20504;-70
2023/05/15 04:04:23;;;;;;;9.13;8.23;;;;;;;11.18;78.62;100404.97;5014690;28;20216;-70
2023/05/15 04:06:50;;;;;;;8.07;6.90;;;;;;;11.20;78.93;100407.28;5014433;28;20212;-70
2023/05/15 04:09:16;;;;;;;8.07;7.17;;;;;;;11.21;79.26;100404.31;5018761;28;20196;-71
2023/05/15 04:11:45;;;;;;;7.90;7.10;;;;;;;11.21;78.89;100403.53;5013671;28;20307;-71
2023/05/15 04:14:13;;;;;;;10.10;7.37;;;;;;;11.23;78.50;100401.34;5010027;28;20662;-70
2023/05/15 04:16:39;;;;;;;10.10;8.17;;;;;;;11.24;78.51;100406.28;5009773;28;20201;-71
2023/05/15 04:19:06;;;;;;;8.43;7.57;;;;;;;11.25;79.04;100399.13;5017051;28;20747;-70
2023/05/15 04:21:32;;;;;;;9.23;7.67;;;;;;;11.25;78.52;100391.22;5009747;28;20243;-71
2023/05/15 04:23:58;;;;;;;8.47;7.40;;;;;;;11.26;79.46;100390.09;5010093;28;20211;-70
2023/05/15 04:26:25;;;;;;;9.07;7.83;;;;;;;11.27;78.54;100391.63;5019890;28;20204;-70
2023/05/15 04:28:51;;;;;;;9.37;7.17;;;;;;;11.28;79.25;100382.63;5022341;28;20212;-71
2023/05/15 04:31:19;;;;;;;9.63;7.80;;;;;;;11.28;78.77;100386.03;5011752;28;20243;-70
2023/05/15 04:33:45;;;;;;;13.67;7.73;;;;;;;11.29;78.36;100387.56;5013352;28;20220;-70
2023/05/15 04:36:11;;;;;;;8.67;7.60;;;;;;;11.31;78.78;100384.59;5009671;28;20673;-70
2023/05/15 04:38:37;;;;;;;8.83;7.63;;;;;;;11.32;78.71;100380.84;5009617;28;20211;-70
2023/05/15 04:41:04;;;;;;;9.27;8.00;;;;;;;11.32;78.99;100376.31;5017877;28;20207;-70
2023/05/15 04:43:30;;;;;;;9.50;8.33;;;;;;;11.33;79.50;100377.84;5011174;28;20220;-70
2023/05/15 04:45:57;;;;;;;9.10;7.93;;;;;;;11.34;78.91;100374.09;5010968;28;20675;-70
2023/05/15 04:48:24;;;;;;;8.60;7.80;;;;;;;11.37;79.13;100370.03;4993348;28;20197;-70
2023/05/15 04:50:51;;;;;;;8.73;7.83;;;;;;;11.39;78.44;100367.84;5011373;28;20206;-70
2023/05/15 04:53:17;;;;;;;9.27;7.93;;;;;;;11.40;79.31;100361.44;5011430;28;20263;-70
2023/05/15 04:55:43;;;;;;;8.30;7.50;;;;;;;11.41;78.95;100355.81;5001381;28;20223;-70
2023/05/15 04:58:10;;;;;;;8.80;7.50;;;;;;;11.43;79.04;100348.31;5008589;28;20235;-70
2023/05/15 05:00:36;;;;;;;9.00;8.03;;;;;;;11.44;79.16;100343.81;5023688;28;20212;-70
2023/05/15 05:03:03;;;;;;;9.43;8.40;;;;;;;11.46;79.44;100331.00;5012770;28;20235;-70
2023/05/15 05:05:31;;;;;;;9.80;7.90;;;;;;;11.47;79.58;100335.19;5006045;28;20769;-70
2023/05/15 05:07:57;;;;;;;9.57;8.20;;;;;;;11.47;78.63;100328.03;5013882;28;20197;-70
2023/05/15 05:10:23;;;;;;;8.70;7.80;;;;;;;11.51;79.42;100336.06;5008521;28;20208;-71
2023/05/15 05:12:50;;;;;;;8.43;7.60;;;;;;;11.51;78.71;100336.06;5015550;28;20889;-70
2023/05/15 05:15:16;;;;;;;11.03;8.83;;;;;;;11.53;79.34;100336.47;5018769;28;20219;-70
2023/05/15 05:17:43;;;;;;;10.10;8.20;;;;;;;11.56;78.74;100333.16;5013527;28;20219;-70
2023/05/15 05:20:10;;;;;;;9.53;8.53;;;;;;;11.55;78.88;100337.69;5009357;28;20217;-70
2023/05/15 05:22:39;;;;;;;9.60;8.57;;;;;;;11.58;78.21;100334.38;5015542;28;20316;-70
2023/05/15 05:25:06;;;;;;;8.90;7.97;;;;;;;11.62;78.20;100329.19;5022168;28;20212;-70
2023/05/15 05:27:33;;;;;;;10.30;7.83;;;;;;;11.65;78.53;100326.66;5014510;28;20197;-70
2023/05/15 05:29:59;;;;;;;10.50;8.57;;;;;;;11.69;78.52;100322.22;5020386;28;20202;-70
2023/05/15 05:32:25;;;;;;;9.07;7.93;;;;;;;11.74;79.65;100319.34;5010206;28;20229;-70
2023/05/15 05:34:52;;;;;;;9.80;8.33;;;;;;;11.78;78.62;100325.50;5026718;28;20232;-71
2023/05/15 05:37:18;;;;;;;9.70;8.70;;;;;;;11.83;78.61;100319.16;5015744;28;20205;-70
2023/05/15 05:39:46;;;;;;;9.27;8.27;;;;;;;11.86;78.74;100313.97;5025480;28;20202;-70
2023/05/15 05:42:12;;;;;;;9.83;8.20;;;;;;;11.91;79.03;100316.38;5021008;28;20245;-70
2023/05/15 05:44:38;;;;;;;10.17;8.20;;;;;;;11.96;78.43;100304.78;5021330;28;20278;-71
2023/05/15 05:47:05;;;;;;;11.27;8.47;;;;;;;11.99;78.38;100318.09;5012291;28;20722;-71
2023/05/15 05:49:31;;;;;;;9.00;8.07;;;;;;;12.05;77.53;100314.06;5016450;28;20567;-70
2023/05/15 05:52:04;;;;;;;12.87;8.80;;;;;;;12.08;77.57;100308.13;5018640;28;20232;-70
2023/05/15 05:54:31;;;;;;;11.90;9.37;;;;;;;12.12;77.54;100305.56;5014022;28;20222;-70
2023/05/15 05:56:58;;;;;;;9.40;8.40;;;;;;;12.17;77.86;100313.22;5024797;28;20202;-70
2023/05/15 05:59:25;;;;;;;9.83;8.83;;;;;;;12.21;77.29;100306.16;5013334;28;20204;-70
2023/05/15 06:01:51;;;;;;;8.67;7.77;;;;;;;12.25;76.26;100310.41;5009840;28;20904;-69
2023/05/15 06:04:19;;;;;;;11.30;8.60;;;;;;;12.29;76.67;100305.97;5016068;28;20207;-69
2023/05/15 06:06:46;;;;;;;9.07;8.03;;;;;;;12.34;76.79;100310.22;5006819;28;20259;-69
2023/05/15 06:09:12;;;;;;;10.70;8.43;;;;;;;12.35;75.82;100309.88;5009851;28;20217;-70
2023/05/15 06:11:39;;;;;;;10.83;7.90;;;;;;;12.38;75.44;100314.47;5012509;28;20233;-69
2023/05/15 06:14:07;;;;;;;9.00;8.03;;;;;;;12.41;75.71;100303.22;5011311;28;20241;-69
2023/05/15 06:16:33;;;;;;;8.70;7.80;;;;;;;12.42;75.29;100302.09;5014060;28;20291;-69
2023/05/15 06:19:00;;;;;;;10.20;8.67;;;;;;;12.46;75.65;100296.88;5010285;28;20207;-69
2023/05/15 06:21:26;;;;;;;9.57;7.90;;;;;;;12.44;74.37;100297.25;5009773;28;20248;-69
2023/05/15 06:23:52;;;;;;;9.30;8.13;;;;;;;12.48;74.67;100294.69;5022625;28;20536;-69
2023/05/15 06:26:20;;;;;;;9.33;8.33;;;;;;;12.48;74.17;100294.69;5008556;28;20245;-69
2023/05/15 06:28:46;;;;;;;13.03;9.03;;;;;;;12.50;73.76;100300.38;5013764;28;20203;-70
2023/05/15 06:31:14;;;;;;;10.53;8.00;;;;;;;12.50;74.02;100293.22;5020312;28;20227;-69
2023/05/15 06:33:40;;;;;;;8.77;7.87;;;;;;;12.53;74.17;100292.50;5011518;28;20662;-69
2023/05/15 06:36:07;;;;;;;10.63;8.70;;;;;;;12.55;74.00;100289.53;5012781;28;20223;-69
2023/05/15 06:38:33;;;;;;;9.03;8.10;;;;;;;12.58;74.09;100289.59;5012304;28;20323;-69
2023/05/15 06:40:59;;;;;;;10.63;7.93;;;;;;;12.61;73.30;100299.53;5018636;28;20214;-69
2023/05/15 06:43:25;;;;;;;10.00;8.20;;;;;;;12.64;74.26;100292.75;5015761;28;20207;-69
2023/05/15 06:45:52;;;;;;;8.03;7.23;;;;;;;12.69;74.39;100285.31;5017527;28;20208;-69
2023/05/15 06:48:19;;;;;;;9.87;8.13;;;;;;;12.72;74.16;100287.28;5013937;28;20212;-69
2023/05/15 06:50:46;;;;;;;9.97;8.20;;;;;;;12.77;73.62;100287.00;5009039;28;20201;-69
2023/05/15 06:53:12;;;;;;;9.23;8.07;;;;;;;12.81;73.49;100281.78;5011460;28;20230;-70
2023/05/15 06:55:38;;;;;;;9.37;8.13;;;;;;;12.85;73.03;100282.63;5013262;28;20226;-69
2023/05/15 06:58:05;;;;;;;9.27;8.00;;;;;;;12.89;73.46;100273.63;5011102;28;20203;-69
2023/05/15 07:00:31;;;;;;;8.23;7.33;;;;;;;12.92;72.92;100274.81;5017184;28;20223;-69
2023/05/15 07:02:57;;;;;;;10.37;7.97;;;;;;;12.96;73.04;100273.81;5010712;28;20269;-69
2023/05/15 07:05:25;;;;;;;9.17;8.23;;;;;;;12.99;73.30;100275.00;5008532;28;20201;-69
2023/05/15 07:07:51;;;;;;;9.87;8.10;;;;;;;13.04;73.08;100272.06;5013318;28;20206;-69
2023/05/15 07:10:18;;;;;;;15.53;8.83;;;;;;;13.08;73.71;100255.13;4997831;28;20202;-69
2023/05/15 07:12:44;;;;;;;9.37;8.37;;;;;;;13.11;73.34;100261.59;5011831;28;20222;-69
2023/05/15 07:15:11;;;;;;;8.50;7.60;;;;;;;13.15;73.39;100257.13;5017196;28;20767;-69
2023/05/15 07:17:37;;;;;;;9.33;8.37;;;;;;;13.19;73.10;100250.78;5022200;28;20560;-69
2023/05/15 07:20:05;;;;;;;9.27;7.77;;;;;;;13.22;73.17;100250.09;5017457;28;20672;-69
2023/05/15 07:22:33;;;;;;;8.87;8.00;;;;;;;13.27;72.71;100241.84;5013558;28;20227;-69
2023/05/15 07:24:59;;;;;;;10.23;7.87;;;;;;;13.33;72.56;100250.28;5014420;28;20195;-69
2023/05/15 07:27:26;;;;;;;9.57;8.23;;;;;;;13.39;73.10;100244.34;5008277;28;20210;-69
2023/05/15 07:29:53;;;;;;;9.57;8.57;;;;;;;13.44;72.27;100244.06;5011025;28;20235;-69
2023/05/15 07:32:19;;;;;;;10.30;8.83;;;;;;;13.52;72.66;100244.94;5010751;28;20231;-69
2023/05/15 07:34:46;;;;;;;12.97;9.07;;;;;;;13.59;72.49;100235.22;5012194;28;20292;-69
2023/05/15 07:37:12;;;;;;;11.93;9.43;;;;;;;13.67;72.29;100230.81;5002444;28;20204;-69
2023/05/15 07:39:39;;;;;;;11.33;8.17;;;;;;;13.74;72.19;100238.88;5018049;28;20200;-70
2023/05/15 07:42:06;;;;;;;11.27;9.00;;;;;;;13.80;72.27;100227.63;5017801;28;20225;-69
2023/05/15 07:44:33;;;;;;;9.47;8.20;;;;;;;13.88;72.05;100228.50;5009677;28;20198;-69
2023/05/15 07:46:59;;;;;;;9.77;8.67;;;;;;;13.96;72.09;100230.91;5010866;28;20202;-70
2023/05/15 07:49:25;;;;;;;9.77;8.00;;;;;;;14.02;71.61;100218.84;5011692;28;20208;-69
2023/05/15 07:51:52;;;;;;;9.07;7.87;;;;;;;14.08;71.06;100222.00;5009706;28;20378;-68
2023/05/15 07:54:18;;;;;;;9.20;8.20;;;;;;;14.14;71.26;100212.59;5015330;28;20208;-69
2023/05/15 07:56:46;;;;;;;10.13;8.60;;;;;;;14.17;69.99;100222.47;5009241;28;20200;-69
2023/05/15 07:59:12;;;;;;;8.63;7.73;;;;;;;14.20;70.24;100224.47;5003726;28;20256;-69
2023/05/15 08:01:39;;;;;;;9.37;8.23;;;;;;;14.22;69.99;100230.19;5012208;28;20227;-69
2023/05/15 08:04:08;;;;;;;10.33;8.10;;;;;;;14.24;70.32;100226.03;5012423;28;20206;-69
2023/05/15 08:06:35;;;;;;;8.80;7.70;;;;;;;14.30;70.72;100223.84;5019396;28;20689;-69
2023/05/15 08:09:02;;;;;;;8.70;7.67;;;;;;;14.33;69.96;100217.84;5010957;28;20197;-69
2023/05/15 08:11:29;;;;;;;8.73;7.87;;;;;;;14.37;70.29;100213.31;5002244;28;20230;-69
2023/05/15 08:13:57;;;;;;;9.97;8.50;;;;;;;14.43;70.08;100217.22;5012310;28;20201;-69
2023/05/15 08:16:23;;;;;;;10.33;8.70;;;;;;;14.48;69.73;100222.97;5007586;28;20223;-69
2023/05/15 08:18:52;;;;;;;9.87;8.30;;;;;;;14.52;69.88;100221.13;5009448;28;20561;-69
2023/05/15 08:21:18;;;;;;;10.30;8.27;;;;;;;14.58;69.74;100217.03;4992778;28;20260;-69
2023/05/15 08:23:44;;;;;;;8.63;7.70;;;;;;;14.61;68.88;100208.34;5011827;28;20214;-69
2023/05/15 08:26:11;;;;;;;10.77;8.03;;;;;;;14.65;69.42;100213.72;5013870;28;20194;-70
2023/05/15 08:28:37;;;;;;;9.47;7.23;;;;;;;14.61;67.93;100216.31;5003252;28;20210;-70
2023/05/15 08:31:05;;;;;;;9.60;7.90;;;;;;;14.66;68.75;100220.56;5017049;28;20226;-69
2023/05/15 08:33:31;;;;;;;8.70;7.80;;;;;;;14.67;69.16;100225.50;5010130;28;20208;-69
2023/05/15 08:35:58;;;;;;;8.80;7.90;;;;;;;14.68;68.37;100220.94;5010731;28;20222;-69
2023/05/15 08:38:24;;;;;;;9.47;8.47;;;;;;;14.66;68.29;100223.97;5006994;28;20211;-69
2023/05/15 08:40:54;;;;;;;9.67;7.70;;;;;;;14.65;67.53;100235.72;4995059;28;20193;-69
2023/05/15 08:43:22;;;;;;;9.30;8.00;;;;;;;14.64;67.64;100238.75;5018004;28;20205;-69
2023/05/15 08:45:49;;;;;;;9.23;8.27;;;;;;;14.64;68.14;100233.44;5023411;28;20200;-69
2023/05/15 08:48:19;;;;;;;11.83;9.13;;;;;;;14.63;69.88;100226.56;5013531;28;20277;-69
2023/05/15 08:50:46;;;;;;;15.53;13.83;;;;;;;14.63;69.31;100224.69;5011808;28;20689;-69
2023/05/15 08:53:13;;;;;;;14.87;13.37;;;;;;;14.63;68.99;100222.03;5009018;28;20275;-71
2023/05/15 08:55:41;;;;;;;12.80;11.40;;;;;;;14.65;69.69;100224.34;5011466;28;20220;-69
2023/05/15 08:58:08;;;;;;;9.83;8.80;;;;;;;14.65;69.96;100227.00;5011429;28;20204;-69
2023/05/15 09:00:36;;;;;;;13.30;10.80;;;;;;;14.65;69.63;100222.44;5014029;28;20202;-70
2023/05/15 09:03:02;;;;;;;14.23;11.60;;;;;;;14.68;70.66;100226.25;5008677;28;20225;-70
2023/05/15 09:05:31;;;;;;;11.60;9.53;;;;;;;14.70;70.07;100224.78;5006857;28;20209;-69
2023/05/15 09:08:02;;;;;;;16.47;13.00;;;;;;;14.69;69.58;100231.22;4997109;28;20194;-70
2023/05/15 09:10:30;;;;;;;11.33;10.13;;;;;;;14.71;69.46;100233.53;5014593;28;20202;-69
2023/05/15 09:12:57;;;;;;;11.60;8.80;;;;;;;14.71;69.22;100220.22;5011904;28;20221;-70
2023/05/15 09:15:24;;;;;;;11.07;9.97;;;;;;;14.73;70.54;100224.06;5008229;28;20249;-70
2023/05/15 09:17:52;;;;;;;10.73;9.37;;;;;;;14.77;70.69;100218.78;5011896;28;20202;-70
2023/05/15 09:20:26;;;;;;;13.30;9.90;;;;;;;14.83;70.64;100220.00;5006114;28;20661;-69
2023/05/15 09:22:54;;;;;;;10.47;9.27;;;;;;;14.88;69.77;100217.78;5010176;28;20215;-70
2023/05/15 09:25:37;;;;;;;12.90;9.50;;;;;;;14.98;70.41;100211.06;5007708;28;20195;-69
2023/05/15 09:28:04;;;;;;;10.73;9.00;;;;;;;15.08;70.18;100216.50;5008693;28;20744;-69
2023/05/15 09:30:31;;;;;;;14.83;9.57;;;;;;;15.19;69.58;100211.28;5017660;28;20211;-70
2023/05/15 09:33:00;;;;;;;12.83;10.07;;;;;;;15.29;68.99;100206.09;5013692;28;20223;-69
2023/05/15 09:35:34;;;;;;;11.90;9.90;;;;;;;15.43;69.43;100211.56;5007807;28;20452;-72
2023/05/15 09:38:03;;;;;;;10.47;9.20;;;;;;;15.53;68.20;100218.88;5011658;28;20220;-70
2023/05/15 09:40:31;;;;;;;11.73;9.00;;;;;;;15.66;69.18;100209.50;5001121;28;20200;-70
2023/05/15 09:42:58;;;;;;;9.73;8.73;;;;;;;15.79;67.72;100213.41;4994211;28;20220;-69
2023/05/15 09:45:28;;;;;;;12.07;8.57;;;;;;;15.92;68.35;100213.88;5007399;28;20207;-69
2023/05/15 09:47:55;;;;;;;9.20;8.07;;;;;;;16.02;67.68;100213.97;5013653;28;20280;-70
2023/05/15 09:50:22;;;;;;;9.97;7.80;;;;;;;16.11;67.33;100214.41;5008354;28;20212;-70
2023/05/15 09:52:50;;;;;;;12.37;7.93;;;;;;;16.18;66.90;100211.78;5012631;28;20617;-69
2023/05/15 09:55:19;;;;;;;9.37;8.37;;;;;;;16.25;66.89;100213.75;5010310;28;20236;-69
2023/05/15 09:58:04;;;;;;;10.43;8.27;;;;;;;16.27;66.41;100211.47;5008120;28;20184;-69
2023/05/15 10:00:30;;;;;;;9.83;8.20;;;;;;;16.30;65.85;100211.47;5009245;28;20200;-69
2023/05/15 10:02:58;;;;;;;8.63;7.80;;;;;;;16.22;65.02;100212.59;5010620;28;20271;-70
2023/05/15 10:05:26;;;;;;;10.13;8.47;;;;;;;16.26;65.67;100212.59;5008494;28;20201;-70
2023/05/15 10:07:54;;;;;;;10.20;8.87;;;;;;;16.23;66.14;100216.78;5011007;28;20199;-70
2023/05/15 10:10:22;;;;;;;10.17;8.93;;;;;;;16.24;66.98;100217.53;5011375;28;20299;-69
2023/05/15 10:12:51;;;;;;;9.80;8.80;;;;;;;16.23;67.18;100219.44;5010795;28;20223;-70
2023/05/15 10:15:17;;;;;;;10.27;9.07;;;;;;;16.21;67.71;100208.41;5010054;28;20205;-69
2023/05/15 10:17:45;;;;;;;9.60;8.40;;;;;;;16.19;67.49;100207.97;5006486;28;20215;-70
2023/05/15 10:20:13;;;;;;;10.53;7.50;;;;;;;16.20;67.84;100206.84;5010768;28;20552;-70
2023/05/15 10:22:41;;;;;;;8.87;7.93;;;;;;;16.19;67.76;100202.66;5010727;28;20584;-70
2023/05/15 10:25:13;;;;;;;11.37;9.87;;;;;;;16.18;67.75;100195.81;5008219;28;20352;-70
2023/05/15 10:27:42;;;;;;;10.53;8.90;;;;;;;16.16;67.21;100200.75;5008893;28;20200;-70
2023/05/15 10:30:10;;;;;;;9.47;8.57;;;;;;;16.11;66.07;100187.00;5011148;28;20219;-70
2023/05/15 10:32:37;;;;;;;11.27;8.97;;;;;;;16.08;66.42;100191.16;5010952;28;20220;-69
2023/05/15 10:35:04;;;;;;;10.47;9.33;;;;;;;16.08;66.76;100193.84;5013147;28;20200;-70
2023/05/15 10:37:31;;;;;;;11.57;8.97;;;;;;;16.07;66.65;100191.53;5014322;28;20396;-70
2023/05/15 10:39:58;;;;;;;10.10;8.87;;;;;;;16.05;66.34;100185.81;5018504;28;20207;-69
2023/05/15 10:42:26;;;;;;;12.13;9.77;;;;;;;16.06;66.45;100187.34;5013179;28;20559;-70
2023/05/15 10:44:58;;;;;;;10.20;9.20;;;;;;;16.10;66.35;100183.56;5014027;28;20691;-69
2023/05/15 10:47:25;;;;;;;10.13;8.60;;;;;;;16.13;66.64;100192.72;5009093;28;20189;-70
2023/05/15 10:49:52;;;;;;;10.30;8.67;;;;;;;16.14;66.55;100181.69;5009442;28;20215;-69
2023/05/15 10:52:18;;;;;;;8.90;8.00;;;;;;;16.19;67.23;100184.00;5004821;28;20228;-70
2023/05/15 10:54:45;;;;;;;9.27;8.37;;;;;;;16.23;66.13;100182.13;5009931;28;20203;-70
2023/05/15 10:57:11;;;;;;;9.50;8.50;;;;;;;16.29;66.34;100180.63;5009588;28;20227;-70
2023/05/15 10:59:40;;;;;;;9.17;8.27;;;;;;;16.37;66.63;100176.88;5010316;28;20232;-70
2023/05/15 11:02:22;;;;;;;9.73;8.73;;;;;;;16.45;67.25;100183.06;5009870;28;20590;-69
2023/05/15 11:04:54;;;;;;;9.60;8.60;;;;;;;16.51;66.73;100181.56;5007366;28;20219;-69
2023/05/15 11:07:22;;;;;;;10.27;8.17;;;;;;;16.59;67.40;100177.75;5010024;28;20266;-69
2023/05/15 11:09:49;;;;;;;9.43;8.03;;;;;;;16.69;65.88;100183.16;5013356;28;20201;-70
2023/05/15 11:12:15;;;;;;;8.90;7.60;;;;;;;16.79;66.47;100171.75;5010053;28;20570;-70
2023/05/15 11:14:44;;;;;;;10.13;7.80;;;;;;;16.91;65.58;100168.75;5008980;28;20589;-70
2023/05/15 11:17:11;;;;;;;8.93;8.03;;;;;;;17.04;66.23;100172.59;5009681;28;20213;-70
2023/05/15 11:19:56;;;;;;;9.17;8.27;;;;;;;17.18;66.32;100166.53;5010346;28;20320;-69
2023/05/15 11:22:32;;;;;;;9.23;8.20;;;;;;;17.29;65.16;100175.31;5004837;28;20711;-70
2023/05/15 11:25:00;;;;;;;9.30;8.37;;;;;;;17.37;65.62;100160.81;5006412;28;21016;-70
2023/05/15 11:27:29;;;;;;;8.77;7.87;;;;;;;17.44;64.09;100155.53;5007447;28;20193;-70